Tocumen International Airport

MPTO | PTY

Tocumen , Panama , Panama

Thursday, September 19th, 2019 | 14:23

Weather

MPTO 191900Z 13003KT 6000 RA SCT003 BKN013CB 25/25 Q1010 RWY WATER PATCHES TEMPO 5000 RA

Charts

No Charts Available

Gates

85 Available

Runways

2 Available

Events

No events for this airport


New event